sensor_id;sensor_type;location;lat;lon;timestamp;temperature;humidity
59651;DHT22;45954;49.768;8.636;2023-09-07T00:00:49;22.10;94.50
59651;DHT22;45954;49.768;8.636;2023-09-07T00:03:15;21.90;94.40
59651;DHT22;45954;49.768;8.636;2023-09-07T00:05:41;21.60;94.90
59651;DHT22;45954;49.768;8.636;2023-09-07T00:08:07;21.70;95.20
59651;DHT22;45954;49.768;8.636;2023-09-07T00:10:33;21.20;95.90
59651;DHT22;45954;49.768;8.636;2023-09-07T00:13:03;21.00;95.50
59651;DHT22;45954;49.768;8.636;2023-09-07T00:15:30;20.80;96.70
59651;DHT22;45954;49.768;8.636;2023-09-07T00:18:01;20.90;96.60
59651;DHT22;45954;49.768;8.636;2023-09-07T00:20:27;20.60;96.50
59651;DHT22;45954;49.768;8.636;2023-09-07T00:22:53;20.30;97.30
59651;DHT22;45954;49.768;8.636;2023-09-07T00:25:19;20.40;97.30
59651;DHT22;45954;49.768;8.636;2023-09-07T00:27:46;20.30;97.30
59651;DHT22;45954;49.768;8.636;2023-09-07T00:30:12;20.30;96.90
59651;DHT22;45954;49.768;8.636;2023-09-07T00:32:38;19.90;97.30
59651;DHT22;45954;49.768;8.636;2023-09-07T00:35:05;20.00;97.70
59651;DHT22;45954;49.768;8.636;2023-09-07T00:37:33;19.90;97.90
59651;DHT22;45954;49.768;8.636;2023-09-07T00:39:59;20.00;98.20
59651;DHT22;45954;49.768;8.636;2023-09-07T00:42:25;19.90;97.80
59651;DHT22;45954;49.768;8.636;2023-09-07T00:44:51;19.80;98.90
59651;DHT22;45954;49.768;8.636;2023-09-07T00:47:17;20.00;98.50
59651;DHT22;45954;49.768;8.636;2023-09-07T00:49:43;20.20;98.20
59651;DHT22;45954;49.768;8.636;2023-09-07T00:52:10;20.40;97.60
59651;DHT22;45954;49.768;8.636;2023-09-07T00:54:36;20.60;96.70
59651;DHT22;45954;49.768;8.636;2023-09-07T00:57:05;20.70;96.80
59651;DHT22;45954;49.768;8.636;2023-09-07T00:59:33;20.70;97.00
59651;DHT22;45954;49.768;8.636;2023-09-07T01:01:59;20.50;97.30
59651;DHT22;45954;49.768;8.636;2023-09-07T01:04:25;20.60;97.20
59651;DHT22;45954;49.768;8.636;2023-09-07T01:06:56;20.60;97.60
59651;DHT22;45954;49.768;8.636;2023-09-07T01:09:29;20.20;98.20
59651;DHT22;45954;49.768;8.636;2023-09-07T01:11:56;20.20;97.60
59651;DHT22;45954;49.768;8.636;2023-09-07T01:14:22;20.00;98.50
59651;DHT22;45954;49.768;8.636;2023-09-07T01:16:49;19.80;98.30
59651;DHT22;45954;49.768;8.636;2023-09-07T01:19:16;19.70;98.20
59651;DHT22;45954;49.768;8.636;2023-09-07T01:21:43;19.80;98.40
59651;DHT22;45954;49.768;8.636;2023-09-07T01:24:11;19.70;98.30
59651;DHT22;45954;49.768;8.636;2023-09-07T01:26:38;19.80;98.70
59651;DHT22;45954;49.768;8.636;2023-09-07T01:29:08;20.00;98.20
59651;DHT22;45954;49.768;8.636;2023-09-07T01:31:38;20.00;98.00
59651;DHT22;45954;49.768;8.636;2023-09-07T01:34:05;19.80;98.60
59651;DHT22;45954;49.768;8.636;2023-09-07T01:36:32;20.00;97.80
59651;DHT22;45954;49.768;8.636;2023-09-07T01:38:58;20.10;97.70
59651;DHT22;45954;49.768;8.636;2023-09-07T01:41:24;20.10;97.50
59651;DHT22;45954;49.768;8.636;2023-09-07T01:43:50;20.10;97.70
59651;DHT22;45954;49.768;8.636;2023-09-07T01:46:16;20.20;97.70
59651;DHT22;45954;49.768;8.636;2023-09-07T01:48:41;20.10;98.10
59651;DHT22;45954;49.768;8.636;2023-09-07T01:51:08;20.10;98.30
59651;DHT22;45954;49.768;8.636;2023-09-07T01:53:34;19.90;98.10
59651;DHT22;45954;49.768;8.636;2023-09-07T01:56:00;20.00;98.40
59651;DHT22;45954;49.768;8.636;2023-09-07T01:58:25;19.70;98.10
59651;DHT22;45954;49.768;8.636;2023-09-07T02:00:58;19.70;98.50
59651;DHT22;45954;49.768;8.636;2023-09-07T02:03:25;19.80;98.50
59651;DHT22;45954;49.768;8.636;2023-09-07T02:05:55;19.40;98.70
59651;DHT22;45954;49.768;8.636;2023-09-07T02:08:20;19.30;98.70
59651;DHT22;45954;49.768;8.636;2023-09-07T02:10:47;19.30;99.30
59651;DHT22;45954;49.768;8.636;2023-09-07T02:13:13;19.10;99.60
59651;DHT22;45954;49.768;8.636;2023-09-07T02:15:39;19.00;99.90
59651;DHT22;45954;49.768;8.636;2023-09-07T02:18:06;18.90;99.90
59651;DHT22;45954;49.768;8.636;2023-09-07T02:20:32;18.90;99.90
59651;DHT22;45954;49.768;8.636;2023-09-07T02:22:59;18.60;99.90
59651;DHT22;45954;49.768;8.636;2023-09-07T02:25:25;18.70;99.90
59651;DHT22;45954;49.768;8.636;2023-09-07T02:27:51;18.70;99.90
59651;DHT22;45954;49.768;8.636;2023-09-07T02:30:17;18.80;99.90
59651;DHT22;45954;49.768;8.636;2023-09-07T02:32:43;18.70;99.90
59651;DHT22;45954;49.768;8.636;2023-09-07T02:35:09;18.80;99.90
59651;DHT22;45954;49.768;8.636;2023-09-07T02:37:36;18.90;99.90
59651;DHT22;45954;49.768;8.636;2023-09-07T02:40:02;18.70;99.90
59651;DHT22;45954;49.768;8.636;2023-09-07T02:42:33;18.20;99.90
59651;DHT22;45954;49.768;8.636;2023-09-07T02:44:59;18.30;99.90
59651;DHT22;45954;49.768;8.636;2023-09-07T02:47:24;18.40;99.90
59651;DHT22;45954;49.768;8.636;2023-09-07T02:49:50;18.30;99.90
59651;DHT22;45954;49.768;8.636;2023-09-07T02:52:16;18.30;99.90
59651;DHT22;45954;49.768;8.636;2023-09-07T02:54:42;18.30;99.90
59651;DHT22;45954;49.768;8.636;2023-09-07T02:57:07;18.20;99.90
59651;DHT22;45954;49.768;8.636;2023-09-07T02:59:33;18.10;99.90
59651;DHT22;45954;49.768;8.636;2023-09-07T03:01:59;17.90;99.90
59651;DHT22;45954;49.768;8.636;2023-09-07T03:04:25;17.80;99.90
59651;DHT22;45954;49.768;8.636;2023-09-07T03:06:51;17.90;99.90
59651;DHT22;45954;49.768;8.636;2023-09-07T03:09:16;17.90;99.90
59651;DHT22;45954;49.768;8.636;2023-09-07T03:11:42;18.00;99.90
59651;DHT22;45954;49.768;8.636;2023-09-07T03:14:08;18.10;99.90
59651;DHT22;45954;49.768;8.636;2023-09-07T03:16:34;18.10;99.90
59651;DHT22;45954;49.768;8.636;2023-09-07T03:19:00;18.00;99.90
59651;DHT22;45954;49.768;8.636;2023-09-07T03:21:26;17.90;99.90
59651;DHT22;45954;49.768;8.636;2023-09-07T03:23:56;17.90;99.90
59651;DHT22;45954;49.768;8.636;2023-09-07T03:26:22;17.80;99.90
59651;DHT22;45954;49.768;8.636;2023-09-07T03:28:48;17.90;99.90
59651;DHT22;45954;49.768;8.636;2023-09-07T03:31:14;18.10;99.90
59651;DHT22;45954;49.768;8.636;2023-09-07T03:33:39;18.20;99.90
59651;DHT22;45954;49.768;8.636;2023-09-07T03:36:05;18.20;99.90
59651;DHT22;45954;49.768;8.636;2023-09-07T03:38:31;18.20;99.90
59651;DHT22;45954;49.768;8.636;2023-09-07T03:40:57;18.10;99.90
59651;DHT22;45954;49.768;8.636;2023-09-07T03:43:23;18.10;99.90
59651;DHT22;45954;49.768;8.636;2023-09-07T03:45:48;18.20;99.90
59651;DHT22;45954;49.768;8.636;2023-09-07T03:48:14;18.20;99.90
59651;DHT22;45954;49.768;8.636;2023-09-07T03:50:40;18.30;99.90
59651;DHT22;45954;49.768;8.636;2023-09-07T03:53:06;18.40;99.90
59651;DHT22;45954;49.768;8.636;2023-09-07T03:55:44;18.50;99.90
59651;DHT22;45954;49.768;8.636;2023-09-07T03:58:11;18.60;99.90
59651;DHT22;45954;49.768;8.636;2023-09-07T04:00:40;18.70;99.90
59651;DHT22;45954;49.768;8.636;2023-09-07T04:03:10;18.80;99.90
59651;DHT22;45954;49.768;8.636;2023-09-07T04:05:39;18.80;99.90
59651;DHT22;45954;49.768;8.636;2023-09-07T04:08:05;18.80;99.90
59651;DHT22;45954;49.768;8.636;2023-09-07T04:10:32;18.90;99.90
59651;DHT22;45954;49.768;8.636;2023-09-07T04:12:57;18.90;99.90
59651;DHT22;45954;49.768;8.636;2023-09-07T04:15:23;18.90;99.90
59651;DHT22;45954;49.768;8.636;2023-09-07T04:17:51;18.90;99.90
59651;DHT22;45954;49.768;8.636;2023-09-07T04:20:17;18.90;99.90
59651;DHT22;45954;49.768;8.636;2023-09-07T04:22:42;18.90;99.90
59651;DHT22;45954;49.768;8.636;2023-09-07T04:25:08;18.80;99.90
59651;DHT22;45954;49.768;8.636;2023-09-07T04:27:34;18.80;99.90
59651;DHT22;45954;49.768;8.636;2023-09-07T04:30:00;18.90;99.90
59651;DHT22;45954;49.768;8.636;2023-09-07T04:32:26;19.10;99.90
59651;DHT22;45954;49.768;8.636;2023-09-07T04:34:56;19.20;99.90
59651;DHT22;45954;49.768;8.636;2023-09-07T04:37:22;19.40;99.90
59651;DHT22;45954;49.768;8.636;2023-09-07T04:39:51;19.40;99.90
59651;DHT22;45954;49.768;8.636;2023-09-07T04:42:19;19.20;99.90
59651;DHT22;45954;49.768;8.636;2023-09-07T04:44:46;18.90;99.90
59651;DHT22;45954;49.768;8.636;2023-09-07T04:47:12;18.50;99.90
59651;DHT22;45954;49.768;8.636;2023-09-07T04:49:38;18.60;99.90
59651;DHT22;45954;49.768;8.636;2023-09-07T04:52:04;18.60;99.90
59651;DHT22;45954;49.768;8.636;2023-09-07T04:54:30;18.80;99.90
59651;DHT22;45954;49.768;8.636;2023-09-07T04:56:56;18.80;99.90
59651;DHT22;45954;49.768;8.636;2023-09-07T04:59:22;18.80;99.90
59651;DHT22;45954;49.768;8.636;2023-09-07T05:01:48;18.70;99.90
59651;DHT22;45954;49.768;8.636;2023-09-07T05:04:14;18.80;99.90
59651;DHT22;45954;49.768;8.636;2023-09-07T05:06:40;18.70;99.90
59651;DHT22;45954;49.768;8.636;2023-09-07T05:09:07;18.60;99.90
59651;DHT22;45954;49.768;8.636;2023-09-07T05:11:33;18.70;99.90
59651;DHT22;45954;49.768;8.636;2023-09-07T05:14:02;18.80;99.90
59651;DHT22;45954;49.768;8.636;2023-09-07T05:16:28;18.90;99.90
59651;DHT22;45954;49.768;8.636;2023-09-07T05:18:54;18.90;99.90
59651;DHT22;45954;49.768;8.636;2023-09-07T05:21:20;18.90;99.90
59651;DHT22;45954;49.768;8.636;2023-09-07T05:23:46;18.80;99.90
59651;DHT22;45954;49.768;8.636;2023-09-07T05:26:12;18.80;99.90
59651;DHT22;45954;49.768;8.636;2023-09-07T05:28:40;19.00;99.90
59651;DHT22;45954;49.768;8.636;2023-09-07T05:31:09;19.00;99.90
59651;DHT22;45954;49.768;8.636;2023-09-07T05:33:35;19.10;99.90
59651;DHT22;45954;49.768;8.636;2023-09-07T05:36:01;19.40;99.90
59651;DHT22;45954;49.768;8.636;2023-09-07T05:38:27;19.60;99.90
59651;DHT22;45954;49.768;8.636;2023-09-07T05:40:54;19.60;99.90
59651;DHT22;45954;49.768;8.636;2023-09-07T05:43:20;19.60;99.90
59651;DHT22;45954;49.768;8.636;2023-09-07T05:45:46;19.70;99.90
59651;DHT22;45954;49.768;8.636;2023-09-07T05:48:13;19.80;99.90
59651;DHT22;45954;49.768;8.636;2023-09-07T05:50:42;19.80;99.90
59651;DHT22;45954;49.768;8.636;2023-09-07T05:53:08;19.80;99.90
59651;DHT22;45954;49.768;8.636;2023-09-07T05:55:34;19.70;99.90
59651;DHT22;45954;49.768;8.636;2023-09-07T05:58:05;19.80;99.90
59651;DHT22;45954;49.768;8.636;2023-09-07T06:00:31;19.80;99.90
59651;DHT22;45954;49.768;8.636;2023-09-07T06:02:57;19.90;99.90
59651;DHT22;45954;49.768;8.636;2023-09-07T06:05:24;20.00;99.90
59651;DHT22;45954;49.768;8.636;2023-09-07T06:07:49;20.00;99.90
59651;DHT22;45954;49.768;8.636;2023-09-07T06:10:15;20.10;99.90
59651;DHT22;45954;49.768;8.636;2023-09-07T06:12:43;20.20;99.90
59651;DHT22;45954;49.768;8.636;2023-09-07T06:15:08;20.20;99.90
59651;DHT22;45954;49.768;8.636;2023-09-07T06:17:36;20.30;99.90
59651;DHT22;45954;49.768;8.636;2023-09-07T06:20:02;20.50;99.90
59651;DHT22;45954;49.768;8.636;2023-09-07T06:22:28;20.50;99.90
59651;DHT22;45954;49.768;8.636;2023-09-07T06:24:54;20.70;99.90
59651;DHT22;45954;49.768;8.636;2023-09-07T06:27:20;20.90;99.90
59651;DHT22;45954;49.768;8.636;2023-09-07T06:29:46;20.90;99.90
59651;DHT22;45954;49.768;8.636;2023-09-07T06:32:12;21.00;99.90
59651;DHT22;45954;49.768;8.636;2023-09-07T06:34:38;21.10;99.70
59651;DHT22;45954;49.768;8.636;2023-09-07T06:37:05;21.20;99.50
59651;DHT22;45954;49.768;8.636;2023-09-07T06:39:31;21.30;99.40
59651;DHT22;45954;49.768;8.636;2023-09-07T06:41:57;21.30;99.30
59651;DHT22;45954;49.768;8.636;2023-09-07T06:44:23;21.40;99.20
59651;DHT22;45954;49.768;8.636;2023-09-07T06:46:52;21.40;99.10
59651;DHT22;45954;49.768;8.636;2023-09-07T06:49:18;21.50;98.90
59651;DHT22;45954;49.768;8.636;2023-09-07T06:51:44;21.50;98.90
59651;DHT22;45954;49.768;8.636;2023-09-07T06:54:10;21.60;99.20
59651;DHT22;45954;49.768;8.636;2023-09-07T06:56:36;21.50;98.90
59651;DHT22;45954;49.768;8.636;2023-09-07T06:59:02;21.60;98.80
59651;DHT22;45954;49.768;8.636;2023-09-07T07:01:28;21.60;99.00
59651;DHT22;45954;49.768;8.636;2023-09-07T07:03:53;21.70;98.90
59651;DHT22;45954;49.768;8.636;2023-09-07T07:06:19;21.80;99.10
59651;DHT22;45954;49.768;8.636;2023-09-07T07:08:45;21.90;98.80
59651;DHT22;45954;49.768;8.636;2023-09-07T07:11:11;21.90;98.80
59651;DHT22;45954;49.768;8.636;2023-09-07T07:13:37;22.00;98.40
59651;DHT22;45954;49.768;8.636;2023-09-07T07:16:03;22.10;98.40
59651;DHT22;45954;49.768;8.636;2023-09-07T07:18:30;22.10;98.60
59651;DHT22;45954;49.768;8.636;2023-09-07T07:20:56;22.20;98.30
59651;DHT22;45954;49.768;8.636;2023-09-07T07:23:22;22.20;98.20
59651;DHT22;45954;49.768;8.636;2023-09-07T07:25:47;22.30;98.10
59651;DHT22;45954;49.768;8.636;2023-09-07T07:28:13;22.30;98.10
59651;DHT22;45954;49.768;8.636;2023-09-07T07:30:39;22.40;98.10
59651;DHT22;45954;49.768;8.636;2023-09-07T07:33:06;22.60;98.10
59651;DHT22;45954;49.768;8.636;2023-09-07T07:35:34;22.60;98.20
59651;DHT22;45954;49.768;8.636;2023-09-07T07:38:01;22.80;98.20
59651;DHT22;45954;49.768;8.636;2023-09-07T07:40:30;22.80;97.70
59651;DHT22;45954;49.768;8.636;2023-09-07T07:42:56;22.90;97.80
59651;DHT22;45954;49.768;8.636;2023-09-07T07:45:22;22.90;97.30
59651;DHT22;45954;49.768;8.636;2023-09-07T07:47:51;23.00;97.90
59651;DHT22;45954;49.768;8.636;2023-09-07T07:50:18;23.20;98.00
59651;DHT22;45954;49.768;8.636;2023-09-07T07:52:45;23.30;97.10
59651;DHT22;45954;49.768;8.636;2023-09-07T07:55:11;23.30;97.30
59651;DHT22;45954;49.768;8.636;2023-09-07T07:57:40;23.40;97.30
59651;DHT22;45954;49.768;8.636;2023-09-07T08:00:07;23.50;97.40
59651;DHT22;45954;49.768;8.636;2023-09-07T08:02:33;23.50;97.40
59651;DHT22;45954;49.768;8.636;2023-09-07T08:04:59;23.50;97.10
59651;DHT22;45954;49.768;8.636;2023-09-07T08:07:25;23.60;96.80
59651;DHT22;45954;49.768;8.636;2023-09-07T08:09:52;23.80;96.90
59651;DHT22;45954;49.768;8.636;2023-09-07T08:12:18;23.80;96.60
59651;DHT22;45954;49.768;8.636;2023-09-07T08:14:44;23.90;96.30
59651;DHT22;45954;49.768;8.636;2023-09-07T08:17:09;24.00;96.50
59651;DHT22;45954;49.768;8.636;2023-09-07T08:19:35;24.20;96.60
59651;DHT22;45954;49.768;8.636;2023-09-07T08:22:05;24.20;96.60
59651;DHT22;45954;49.768;8.636;2023-09-07T08:24:32;24.30;96.90
59651;DHT22;45954;49.768;8.636;2023-09-07T08:26:58;24.40;96.40
59651;DHT22;45954;49.768;8.636;2023-09-07T08:29:26;24.60;96.40
59651;DHT22;45954;49.768;8.636;2023-09-07T08:31:55;24.70;96.10
59651;DHT22;45954;49.768;8.636;2023-09-07T08:34:21;24.80;96.60
59651;DHT22;45954;49.768;8.636;2023-09-07T08:36:49;24.80;95.70
59651;DHT22;45954;49.768;8.636;2023-09-07T08:39:16;24.80;95.60
59651;DHT22;45954;49.768;8.636;2023-09-07T08:41:44;24.80;95.70
59651;DHT22;45954;49.768;8.636;2023-09-07T08:44:10;24.80;96.00
59651;DHT22;45954;49.768;8.636;2023-09-07T08:46:37;25.00;95.50
59651;DHT22;45954;49.768;8.636;2023-09-07T08:49:03;25.10;95.10
59651;DHT22;45954;49.768;8.636;2023-09-07T08:51:30;25.10;95.40
59651;DHT22;45954;49.768;8.636;2023-09-07T08:54:01;25.20;95.20
59651;DHT22;45954;49.768;8.636;2023-09-07T08:56:29;25.30;95.70
59651;DHT22;45954;49.768;8.636;2023-09-07T08:58:55;25.30;95.70
59651;DHT22;45954;49.768;8.636;2023-09-07T09:01:20;25.40;95.10
59651;DHT22;45954;49.768;8.636;2023-09-07T09:03:49;25.40;94.70
59651;DHT22;45954;49.768;8.636;2023-09-07T09:06:18;25.70;95.30
59651;DHT22;45954;49.768;8.636;2023-09-07T09:08:46;25.70;95.40
59651;DHT22;45954;49.768;8.636;2023-09-07T09:11:15;25.70;94.20
59651;DHT22;45954;49.768;8.636;2023-09-07T09:13:42;25.80;94.50
59651;DHT22;45954;49.768;8.636;2023-09-07T09:16:09;25.90;94.60
59651;DHT22;45954;49.768;8.636;2023-09-07T09:18:36;26.00;94.40
59651;DHT22;45954;49.768;8.636;2023-09-07T09:21:02;26.10;94.60
59651;DHT22;45954;49.768;8.636;2023-09-07T09:23:35;26.20;93.70
59651;DHT22;45954;49.768;8.636;2023-09-07T09:26:03;26.20;94.20
59651;DHT22;45954;49.768;8.636;2023-09-07T09:28:34;26.40;94.30
59651;DHT22;45954;49.768;8.636;2023-09-07T09:31:02;26.50;94.10
59651;DHT22;45954;49.768;8.636;2023-09-07T09:33:32;26.80;94.40
59651;DHT22;45954;49.768;8.636;2023-09-07T09:36:01;26.80;93.40
59651;DHT22;45954;49.768;8.636;2023-09-07T09:38:28;26.80;94.20
59651;DHT22;45954;49.768;8.636;2023-09-07T09:40:55;27.10;93.80
59651;DHT22;45954;49.768;8.636;2023-09-07T09:43:22;27.10;93.70
59651;DHT22;45954;49.768;8.636;2023-09-07T09:45:49;27.30;93.50
59651;DHT22;45954;49.768;8.636;2023-09-07T09:48:19;27.30;93.60
59651;DHT22;45954;49.768;8.636;2023-09-07T09:50:49;27.30;93.30
59651;DHT22;45954;49.768;8.636;2023-09-07T09:53:16;27.40;93.50
59651;DHT22;45954;49.768;8.636;2023-09-07T09:55:50;27.30;93.10
59651;DHT22;45954;49.768;8.636;2023-09-07T09:58:18;27.40;93.30
59651;DHT22;45954;49.768;8.636;2023-09-07T10:00:46;27.80;92.90
59651;DHT22;45954;49.768;8.636;2023-09-07T10:03:31;27.70;93.50
59651;DHT22;45954;49.768;8.636;2023-09-07T10:06:12;27.60;93.40
59651;DHT22;45954;49.768;8.636;2023-09-07T10:09:04;27.80;92.80
59651;DHT22;45954;49.768;8.636;2023-09-07T10:11:39;27.90;92.00
59651;DHT22;45954;49.768;8.636;2023-09-07T10:14:06;28.00;92.50
59651;DHT22;45954;49.768;8.636;2023-09-07T10:16:46;27.90;91.90
59651;DHT22;45954;49.768;8.636;2023-09-07T10:21:44;28.10;91.90
59651;DHT22;45954;49.768;8.636;2023-09-07T10:24:11;28.20;91.50
59651;DHT22;45954;49.768;8.636;2023-09-07T10:26:37;28.40;92.60
59651;DHT22;45954;49.768;8.636;2023-09-07T10:29:03;28.60;92.00
59651;DHT22;45954;49.768;8.636;2023-09-07T10:31:31;28.80;92.00
59651;DHT22;45954;49.768;8.636;2023-09-07T10:34:10;28.90;91.00
59651;DHT22;45954;49.768;8.636;2023-09-07T10:36:39;28.70;91.20
59651;DHT22;45954;49.768;8.636;2023-09-07T10:39:05;28.90;91.60
59651;DHT22;45954;49.768;8.636;2023-09-07T10:41:45;29.00;91.40
59651;DHT22;45954;49.768;8.636;2023-09-07T10:44:11;29.20;90.40
59651;DHT22;45954;49.768;8.636;2023-09-07T10:46:39;29.10;91.00
59651;DHT22;45954;49.768;8.636;2023-09-07T10:49:11;28.90;90.80
59651;DHT22;45954;49.768;8.636;2023-09-07T10:51:45;28.90;91.20
59651;DHT22;45954;49.768;8.636;2023-09-07T10:54:22;29.20;90.50
59651;DHT22;45954;49.768;8.636;2023-09-07T10:56:50;29.30;90.20
59651;DHT22;45954;49.768;8.636;2023-09-07T10:59:17;29.60;90.80
59651;DHT22;45954;49.768;8.636;2023-09-07T11:01:44;29.60;88.90
59651;DHT22;45954;49.768;8.636;2023-09-07T11:04:11;29.50;89.90
59651;DHT22;45954;49.768;8.636;2023-09-07T11:06:40;29.60;89.80
59651;DHT22;45954;49.768;8.636;2023-09-07T11:09:06;29.70;89.60
59651;DHT22;45954;49.768;8.636;2023-09-07T11:11:36;29.90;88.20
59651;DHT22;45954;49.768;8.636;2023-09-07T11:14:03;30.00;88.70
59651;DHT22;45954;49.768;8.636;2023-09-07T11:16:30;30.20;87.10
59651;DHT22;45954;49.768;8.636;2023-09-07T11:19:03;30.40;87.70
59651;DHT22;45954;49.768;8.636;2023-09-07T11:21:30;30.50;85.90
59651;DHT22;45954;49.768;8.636;2023-09-07T11:23:58;30.20;87.20
59651;DHT22;45954;49.768;8.636;2023-09-07T11:26:24;30.20;87.00
59651;DHT22;45954;49.768;8.636;2023-09-07T11:28:50;30.00;84.40
59651;DHT22;45954;49.768;8.636;2023-09-07T11:31:19;30.20;84.00
59651;DHT22;45954;49.768;8.636;2023-09-07T11:33:47;30.50;84.60
59651;DHT22;45954;49.768;8.636;2023-09-07T11:36:14;30.20;85.40
59651;DHT22;45954;49.768;8.636;2023-09-07T11:38:43;30.40;84.30
59651;DHT22;45954;49.768;8.636;2023-09-07T11:41:10;30.70;84.20
59651;DHT22;45954;49.768;8.636;2023-09-07T11:43:36;30.60;85.10
59651;DHT22;45954;49.768;8.636;2023-09-07T11:46:03;30.70;83.90
59651;DHT22;45954;49.768;8.636;2023-09-07T11:48:29;30.50;82.60
59651;DHT22;45954;49.768;8.636;2023-09-07T11:50:55;30.60;83.20
59651;DHT22;45954;49.768;8.636;2023-09-07T11:53:21;30.40;81.40
59651;DHT22;45954;49.768;8.636;2023-09-07T11:55:47;30.70;83.30
59651;DHT22;45954;49.768;8.636;2023-09-07T11:58:12;30.50;82.10
59651;DHT22;45954;49.768;8.636;2023-09-07T12:00:38;30.90;82.00
59651;DHT22;45954;49.768;8.636;2023-09-07T12:03:06;31.20;80.90
59651;DHT22;45954;49.768;8.636;2023-09-07T12:05:32;31.30;80.50
59651;DHT22;45954;49.768;8.636;2023-09-07T12:07:58;31.40;82.10
59651;DHT22;45954;49.768;8.636;2023-09-07T12:10:23;31.30;83.70
59651;DHT22;45954;49.768;8.636;2023-09-07T12:12:49;31.40;82.40
59651;DHT22;45954;49.768;8.636;2023-09-07T12:15:15;31.90;82.60
59651;DHT22;45954;49.768;8.636;2023-09-07T12:17:41;32.00;80.60
59651;DHT22;45954;49.768;8.636;2023-09-07T12:20:07;31.90;80.70
59651;DHT22;45954;49.768;8.636;2023-09-07T12:22:38;31.90;81.70
59651;DHT22;45954;49.768;8.636;2023-09-07T12:25:05;32.10;78.70
59651;DHT22;45954;49.768;8.636;2023-09-07T12:27:36;32.20;78.10
59651;DHT22;45954;49.768;8.636;2023-09-07T12:30:03;32.40;78.20
59651;DHT22;45954;49.768;8.636;2023-09-07T12:32:33;32.10;78.80
59651;DHT22;45954;49.768;8.636;2023-09-07T12:34:59;32.50;76.90
59651;DHT22;45954;49.768;8.636;2023-09-07T12:37:25;32.30;75.60
59651;DHT22;45954;49.768;8.636;2023-09-07T12:39:51;32.50;76.00
59651;DHT22;45954;49.768;8.636;2023-09-07T12:42:18;32.30;76.80
59651;DHT22;45954;49.768;8.636;2023-09-07T12:44:44;32.20;78.00
59651;DHT22;45954;49.768;8.636;2023-09-07T12:47:10;32.20;77.20
59651;DHT22;45954;49.768;8.636;2023-09-07T12:49:36;32.20;77.20
59651;DHT22;45954;49.768;8.636;2023-09-07T12:52:02;32.40;75.90
59651;DHT22;45954;49.768;8.636;2023-09-07T12:54:34;32.80;76.20
59651;DHT22;45954;49.768;8.636;2023-09-07T12:57:02;33.30;76.30
59651;DHT22;45954;49.768;8.636;2023-09-07T12:59:29;33.50;76.00
59651;DHT22;45954;49.768;8.636;2023-09-07T13:01:55;33.80;76.00
59651;DHT22;45954;49.768;8.636;2023-09-07T13:04:23;33.60;74.80
59651;DHT22;45954;49.768;8.636;2023-09-07T13:06:49;33.30;77.30
59651;DHT22;45954;49.768;8.636;2023-09-07T13:09:15;33.40;75.70
59651;DHT22;45954;49.768;8.636;2023-09-07T13:11:41;33.80;75.00
59651;DHT22;45954;49.768;8.636;2023-09-07T13:14:06;33.00;77.30
59651;DHT22;45954;49.768;8.636;2023-09-07T13:16:34;33.10;76.90
59651;DHT22;45954;49.768;8.636;2023-09-07T13:19:00;33.50;74.80
59651;DHT22;45954;49.768;8.636;2023-09-07T13:21:26;33.40;75.20
59651;DHT22;45954;49.768;8.636;2023-09-07T13:23:52;33.20;76.20
59651;DHT22;45954;49.768;8.636;2023-09-07T13:26:17;34.00;75.40
59651;DHT22;45954;49.768;8.636;2023-09-07T13:28:43;33.60;74.00
59651;DHT22;45954;49.768;8.636;2023-09-07T13:31:09;33.60;74.60
59651;DHT22;45954;49.768;8.636;2023-09-07T13:33:35;33.70;73.70
59651;DHT22;45954;49.768;8.636;2023-09-07T13:36:01;34.10;74.90
59651;DHT22;45954;49.768;8.636;2023-09-07T13:38:27;34.10;73.80
59651;DHT22;45954;49.768;8.636;2023-09-07T13:40:53;34.20;72.80
59651;DHT22;45954;49.768;8.636;2023-09-07T13:43:19;33.80;73.70
59651;DHT22;45954;49.768;8.636;2023-09-07T13:45:45;34.80;73.10
59651;DHT22;45954;49.768;8.636;2023-09-07T13:48:11;34.90;73.00
59651;DHT22;45954;49.768;8.636;2023-09-07T13:50:37;34.80;71.90
59651;DHT22;45954;49.768;8.636;2023-09-07T13:53:02;34.50;72.70
59651;DHT22;45954;49.768;8.636;2023-09-07T13:55:28;34.40;71.80
59651;DHT22;45954;49.768;8.636;2023-09-07T13:57:54;34.80;72.10
59651;DHT22;45954;49.768;8.636;2023-09-07T14:00:20;35.40;70.20
59651;DHT22;45954;49.768;8.636;2023-09-07T14:02:46;35.10;69.60
59651;DHT22;45954;49.768;8.636;2023-09-07T14:05:12;35.50;71.30
59651;DHT22;45954;49.768;8.636;2023-09-07T14:07:38;35.10;70.00
59651;DHT22;45954;49.768;8.636;2023-09-07T14:10:04;35.20;69.90
59651;DHT22;45954;49.768;8.636;2023-09-07T14:12:30;34.80;68.00
59651;DHT22;45954;49.768;8.636;2023-09-07T14:14:56;35.40;68.90
59651;DHT22;45954;49.768;8.636;2023-09-07T14:17:22;35.90;69.70
59651;DHT22;45954;49.768;8.636;2023-09-07T14:19:47;36.60;68.20
59651;DHT22;45954;49.768;8.636;2023-09-07T14:22:13;36.20;67.50
59651;DHT22;45954;49.768;8.636;2023-09-07T14:24:39;36.70;66.20
59651;DHT22;45954;49.768;8.636;2023-09-07T14:27:05;37.00;66.10
59651;DHT22;45954;49.768;8.636;2023-09-07T14:29:31;37.80;64.90
59651;DHT22;45954;49.768;8.636;2023-09-07T14:31:57;37.60;65.50
59651;DHT22;45954;49.768;8.636;2023-09-07T14:34:23;37.90;64.70
59651;DHT22;45954;49.768;8.636;2023-09-07T14:36:49;38.10;64.80
59651;DHT22;45954;49.768;8.636;2023-09-07T14:39:15;37.60;64.60
59651;DHT22;45954;49.768;8.636;2023-09-07T14:41:41;38.20;64.50
59651;DHT22;45954;49.768;8.636;2023-09-07T14:44:08;37.70;63.20
59651;DHT22;45954;49.768;8.636;2023-09-07T14:46:36;38.10;63.00
59651;DHT22;45954;49.768;8.636;2023-09-07T14:49:02;37.90;62.40
59651;DHT22;45954;49.768;8.636;2023-09-07T14:51:28;38.20;62.90
59651;DHT22;45954;49.768;8.636;2023-09-07T14:53:54;38.60;62.70
59651;DHT22;45954;49.768;8.636;2023-09-07T14:56:20;39.10;62.20
59651;DHT22;45954;49.768;8.636;2023-09-07T14:58:46;39.00;61.50
59651;DHT22;45954;49.768;8.636;2023-09-07T15:01:11;39.40;61.50
59651;DHT22;45954;49.768;8.636;2023-09-07T15:03:37;39.20;59.80
59651;DHT22;45954;49.768;8.636;2023-09-07T15:06:08;39.30;60.00
59651;DHT22;45954;49.768;8.636;2023-09-07T15:08:38;39.60;60.10
59651;DHT22;45954;49.768;8.636;2023-09-07T15:11:04;39.00;60.90
59651;DHT22;45954;49.768;8.636;2023-09-07T15:13:30;39.50;60.40
59651;DHT22;45954;49.768;8.636;2023-09-07T15:15:56;39.20;59.80
59651;DHT22;45954;49.768;8.636;2023-09-07T15:18:21;40.50;58.70
59651;DHT22;45954;49.768;8.636;2023-09-07T15:20:47;41.00;58.80
59651;DHT22;45954;49.768;8.636;2023-09-07T15:23:13;41.00;57.90
59651;DHT22;45954;49.768;8.636;2023-09-07T15:25:39;41.60;57.20
59651;DHT22;45954;49.768;8.636;2023-09-07T15:28:05;42.00;56.90
59651;DHT22;45954;49.768;8.636;2023-09-07T15:30:35;42.40;56.90